Tiempo atmosférico en la estación meteorológica de Planoles, Girona (1149 m.)



Fecha
DESCASC
Temp. máxima en grados centígrados (hora)
DESCASC
Temp. mínima en grados centígrados (hora)
DESCASC
Temp. media en grados centígrados
DESCASC
Racha de viento máxima en m/sg (hora)
DESCASC
Velocidad máxima media en intervalos de 10 minutos(hora)
DESCASC
Precipitaciones diarias en mm
DESCASC
Precipitaciones de 00:00 a 06:00 en mm
DESCASC
Precipitaciones de 06:00 a 12:00 en mm
DESCASC
Precipitaciones de 12:00 a 18:00 en mm
DESCASC
Precipitaciones de 18:00 a 24:00 en mm
DESCASC
16-02-2020 21.6 (15:00) 4.2 (02:40) 12.9 11.67 (12:40) 5.83 (12:40) 0 0 0 0 0
15-02-2020 16 (14:50) 2.3 (06:30) 9.1 6.11 (15:00) 3.06 (16:20) 0 0 0 0 0
14-02-2020 13.9 (16:20) 3.1 (08:10) 8.5 8.33 (13:50) 5 (13:50) 0 0 0 0 0
13-02-2020 15.3 (13:20) 2.4 (00:00) 8.9 7.22 (12:50) 4.17 (12:50) 0 0 0 0 0
12-02-2020 11.7 (12:40) 3.5 (00:00) 7.6 7.5 (13:10) 4.44 (13:50) 0 0 0 0 0
11-02-2020 11.3 (14:50) 4.6 (00:00) 8 7.78 (12:20) 3.61 (12:30) 0 0 0 0 0
10-02-2020 17.8 (14:00) 3.7 (00:00) 10.7 7.5 (13:10) 4.17 (13:10) 0 0 0 0 0
09-02-2020 13.3 (14:20) -0.7 (-00:0) 6.3 7.5 (15:00) 4.17 (15:00) 0 0 0 0 0
08-02-2020 8.2 (15:10) -2.8 (-00:0) 2.7 6.39 (13:40) 3.61 (15:40) 0 0 0 0 0
07-02-2020 10.3 (14:40) -2.5 (-00:0) 3.9 5 (15:10) 2.5 (15:10) 0 0 0 0 0
06-02-2020 13.3 (14:50) -1.7 (-00:0) 5.8 8.33 (16:00) 4.72 (16:00) 0 0 0 0 0
05-02-2020 14.7 (13:40) 0.3 (00:00) 7.5 11.11 (00:10) 5.83 (00:10) 0 0 0 0 0
04-02-2020 16.3 (12:30) 5.1 (00:00) 10.7 21.67 (16:50) 10 (16:50) 0 0 0 0 0
03-02-2020 21.2 (14:00) 8.1 (00:00) 14.7 6.39 (08:40) 3.33 (12:30) 0 0 0 0 0
02-02-2020 19.2 (14:20) 4.8 (00:00) 12 6.39 (13:40) 3.61 (13:40) 0 0 0 0 0
01-02-2020 16.9 (15:30) 3 (00:00) 9.9 9.72 (13:40) 5.28 (14:50) 0 0 0 0 0
31-01-2020 14.6 (15:20) 3.8 (00:00) 9.2 5.56 (15:30) 3.06 (21:30) 0 0 0 0 0
30-01-2020 14 (15:10) 1.7 (00:00) 7.9 5.56 (13:00) 3.33 (13:10) 0 0 0 0 0
29-01-2020 12.6 (14:00) -0.4 (00:00) 6.1 6.39 (16:40) 5 (16:50) 0 0 0 0 0
28-01-2020 11.5 (13:30) 1 (00:00) 6.3 12.78 (06:40) 8.61 (06:50) 0 0 0 0 0
27-01-2020 10.2 (17:30) -0.8 (-00:0) 4.7 13.61 (14:40) 7.5 (14:10) 0 0 0 0 0
26-01-2020 7.8 (12:50) 1.3 (00:00) 4.6 5 (16:40) 2.78 (23:40) 0 0 0 0 0
25-01-2020 6 (16:20) -0.7 (-00:0) 2.7 3.89 (22:40) 2.5 (22:40) 0.4 0 0 0.4 0
24-01-2020 9.5 (15:20) -0.8 (-00:0) 4.3 7.5 (13:00) 3.89 (13:00) 0 0 0 0 0
23-01-2020 6.1 (02:10) -0.2 (00:00) 2.9 10.28 (06:50) 5.28 (06:50) 26.8 13.2 13.6 0 0
22-01-2020 6.1 (22:40) 0.1 (00:00) 3.1 10.83 (23:40) 4.44 (23:20) 80 32.4 27.4 12.8 7.4

Gráficas

Temp. máximas Temp. mínimas Temp. medias Precipitaciones Rachas de viento máximas Velocidades máximas media en intervalos de 10 minutos

Datos horarios

Fecha y hora oficial Temperatura (ºC) Velocidad del viento (km/h) Dirección del viento Racha (km/h) Dirección de racha Precipitación (mm) Presión (hPa) Tendencia (hPa) Humedad (%)
2020-02-20 23:00:00 5.4 9 Noroeste 16 Noroeste 0 -- -- 67
2020-02-20 22:00:00 5.5 8 Noroeste 18 Noroeste 0 -- -- 71
2020-02-20 21:00:00 5.9 8 Noroeste 15 Noroeste 0 -- -- 71
2020-02-20 20:00:00 7.3 9 Noroeste 14 Noroeste 0 -- -- 67
2020-02-20 19:00:00 9.3 4 Noroeste 6 Noroeste 0 -- -- 62
2020-02-20 18:00:00 12 4 Sudeste 21 Este 0 -- -- 54
2020-02-20 17:00:00 15.1 9 Este 25 Este 0 -- -- 42
2020-02-20 16:00:00 16.6 11 Este 19 Sudeste 0 -- -- 35
2020-02-20 15:00:00 16.6 13 Este 24 Este 0 -- -- 34
2020-02-20 14:00:00 16.4 12 Este 22 Sudeste 0 -- -- 30
2020-02-20 13:00:00 15.3 9 Sudeste 19 Sudeste 0 -- -- 38
2020-02-20 12:00:00 12.9 6 Sudeste 11 Sudeste 0 -- -- 42
2020-02-20 11:00:00 9.9 4 Sudeste 6 Sudeste 0 -- -- 43
2020-02-20 10:00:00 6.9 3 Sudeste 5 Este 0 -- -- 58
2020-02-20 09:00:00 2.8 2 Sudeste 9 Noroeste 0 -- -- 59
2020-02-20 08:00:00 -0.9 4 Noroeste 11 Oeste 0 -- -- 66
2020-02-20 07:00:00 -1.1 0 Calma 5 Noroeste 0 -- -- 74
2020-02-20 06:00:00 -1.1 2 Noroeste 5 Oeste 0 -- -- 76
2020-02-20 05:00:00 -0.7 2 Oeste 7 Noroeste 0 -- -- 76
2020-02-20 04:00:00 -0.9 0 Calma 7 Noroeste 0 -- -- 82
2020-02-20 03:00:00 -0.3 3 Noroeste 7 Noroeste 0 -- -- 84
2020-02-20 02:00:00 0.4 2 Nordeste 12 Noroeste 0 -- -- 85
2020-02-20 01:00:00 0.4 0 Calma 12 Noroeste 0 -- -- 87
2020-02-20 00:00:00 0.8 4 Noroeste 8 Noroeste 0 -- -- 87
2020-02-19 23:00:00 1.2 3 Noroeste 8 Noroeste 0 -- -- 86
2020-02-19 22:00:00 1.8 0 Calma 10 Noroeste 0 -- -- 85
2020-02-19 21:00:00 2.7 4 Noroeste 13 Noroeste 0 -- -- 81
2020-02-19 20:00:00 3.7 4 Noroeste 9 Noroeste 0 -- -- 79
2020-02-19 19:00:00 5.4 2 Oeste 5 Noroeste 0 -- -- 73
2020-02-19 18:00:00 7.4 4 Sudeste 19 Este 0 -- -- 69
2020-02-19 17:00:00 10 9 Este 21 Este 0 -- -- 60
2020-02-19 16:00:00 10.5 12 Este 29 Este 0 -- -- 57
2020-02-19 15:00:00 11.3 14 Este 28 Este 0 -- -- 57
2020-02-19 14:00:00 10.9 17 Este 31 Este 0 -- -- 55
2020-02-19 13:00:00 9.9 9 Sudeste 22 Este 0 -- -- 58
2020-02-19 12:00:00 7.1 6 Este 13 Sudeste 0 -- -- 67
2020-02-19 11:00:00 4.9 3 Este 7 Este 0 -- -- 72
2020-02-19 10:00:00 2.8 2 Sudoeste 7 Sudeste 0 -- -- 78
2020-02-19 09:00:00 0.9 2 Sudeste 6 Este 0 -- -- 84
2020-02-19 08:00:00 -1.5 3 Noroeste 6 Norte 0 -- -- 88
2020-02-19 07:00:00 -1.2 5 Nordeste 9 Nordeste 0 -- -- 88
2020-02-19 06:00:00 -0.6 3 Oeste 13 Noroeste 0 -- -- 90
2020-02-19 05:00:00 0.1 5 Este 10 Noroeste 0 -- -- 89
2020-02-19 04:00:00 1.2 4 Noroeste 8 Noroeste 0 -- -- 87
2020-02-19 03:00:00 2.4 0 Calma 5 Este 0 -- -- 88
2020-02-19 02:00:00 3.1 2 Sudeste 5 Nordeste 0 -- -- 89
2020-02-19 01:00:00 3.4 2 Sudoeste 9 Este 0 -- -- 89
2020-02-19 00:00:00 4.3 4 Este 11 Este 0 -- -- 87
2020-02-18 23:00:00 4.6 5 Este 10 Este 0 -- -- 87
2020-02-18 22:00:00 4.9 5 Este 13 Este 0 -- -- 86
2020-02-18 21:00:00 5.1 3 Sudeste 9 Este 0 -- -- 85
2020-02-18 20:00:00 5.3 4 Sudeste 11 Este 0 -- -- 84
2020-02-18 19:00:00 5.7 5 Este 14 Este 0 -- -- 82
2020-02-18 18:00:00 6.1 9 Este 22 Este 0 -- -- 79
2020-02-18 17:00:00 7.2 10 Este 19 Este 0 -- -- 73
2020-02-18 16:00:00 8.2 10 Este 26 Este 0 -- -- 70
2020-02-18 15:00:00 9.1 13 Este 26 Este 0 -- -- 67
2020-02-18 14:00:00 9.3 12 Este 25 Este 0 -- -- 67
2020-02-18 13:00:00 10.6 12 Este 23 Este 0 -- -- 61
2020-02-18 12:00:00 9.1 11 Sudeste 22 Este 0 -- -- 64
2020-02-18 11:00:00 8.2 6 Sudeste 15 Sudeste 0 -- -- 68
2020-02-18 10:00:00 5 0 Calma 6 Noroeste 0 -- -- 71
2020-02-18 09:00:00 0.9 3 Noroeste 8 Noroeste 0 -- -- 85
2020-02-18 08:00:00 0.7 3 Noroeste 6 Norte 0 -- -- 90
2020-02-18 07:00:00 1.5 3 Noroeste 10 Noroeste 0 -- -- 86
2020-02-18 06:00:00 3.3 3 Noroeste 8 Norte 0 -- -- 90
2020-02-18 05:00:00 3.8 2 Noroeste 8 Este 0 -- -- 93
2020-02-18 04:00:00 4.8 4 Este 9 Este 0 -- -- 93
2020-02-18 03:00:00 5.3 4 Sudeste 16 Este 0 -- -- 93
2020-02-18 02:00:00 6.6 10 Este 18 Este 0 -- -- 92
2020-02-18 01:00:00 7.4 0 Calma 9 Sudoeste 0 -- -- 78
2020-02-18 00:00:00 8 0 Calma 6 Este 0 -- -- 94
2020-02-17 23:00:00 8.1 0 Calma 8 Este 0 -- -- 93
2020-02-17 22:00:00 8.6 3 Este 6 Nordeste 0.2 -- -- 91
2020-02-17 21:00:00 9 3 Este 10 Este 0 -- -- 89
2020-02-17 20:00:00 9.7 5 Nordeste 12 Sudeste 0 -- -- 85
2020-02-17 19:00:00 10.4 4 Sudeste 10 Sudeste 0 -- -- 79
2020-02-17 18:00:00 10.8 6 Este 17 Este 0 -- -- 75
2020-02-17 17:00:00 11.5 9 Este 20 Este 0 -- -- 70
2020-02-17 16:00:00 12.3 10 Este 28 Este 0 -- -- 64
2020-02-17 15:00:00 13.1 12 Este 28 Este 0 -- -- 61
2020-02-17 14:00:00 15.5 14 Este 31 Este 0 -- -- 54
2020-02-17 13:00:00 15.7 10 Este 20 Este 0 -- -- 54
2020-02-17 12:00:00 14.1 11 Este 17 Este 0 -- -- 58
2020-02-17 11:00:00 11.5 4 Sudeste 8 Sudeste 0 -- -- 60
2020-02-17 10:00:00 8.9 4 Sudeste 8 Sudeste 0 -- -- 62
2020-02-17 09:00:00 5.7 0 Calma 10 Este 0 -- -- 66
2020-02-17 08:00:00 5.7 4 Este 8 Este 0 -- -- 60
2020-02-17 07:00:00 7.4 3 Este 7 Este 0 -- -- 56
2020-02-17 06:00:00 8.5 7 Este 13 Sudeste 0 -- -- 47
2020-02-17 05:00:00 8.7 7 Este 11 Este 0 -- -- 49
2020-02-17 04:00:00 7.9 3 Nordeste 10 Este 0 -- -- 51
2020-02-17 03:00:00 5.4 0 Calma 5 Oeste 0 -- -- 72
2020-02-17 02:00:00 5.3 0 Calma 7 Este 0 -- -- 81
2020-02-17 01:00:00 6.6 4 Este 8 Este 0 -- -- 74
2020-02-17 00:00:00 6.9 0 Calma 3 Noroeste 0 -- -- 73
2020-02-16 23:00:00 7 0 Calma 7 Este 0 -- -- 76
2020-02-16 22:00:00 7.5 0 Calma 4 Este 0 -- -- 74
2020-02-16 21:00:00 8.3 2 Este 12 Noroeste 0 -- -- 68
2020-02-16 20:00:00 9.5 4 Noroeste 8 Noroeste 0 -- -- 72
2020-02-16 19:00:00 11.3 3 Noroeste 6 Sudeste 0 -- -- 70
2020-02-16 18:00:00 13.3 3 Sur 23 Este 0 -- -- 64
2020-02-16 17:00:00 16.9 9 Sudeste 23 Sudeste 0 -- -- 52
2020-02-16 16:00:00 19 12 Este 27 Oeste 0 -- -- 44
2020-02-16 15:00:00 21.6 8 Oeste 26 Noroeste 0 -- -- 23
2020-02-16 14:00:00 20.6 14 Sudoeste 36 Oeste 0 -- -- 22
2020-02-16 13:00:00 20.2 17 Oeste 42 Noroeste 0 -- -- 19
2020-02-16 12:00:00 14.9 9 Sudeste 19 Sudeste 0 -- -- 50
2020-02-16 11:00:00 12 5 Sudeste 10 Sudeste 0 -- -- 57
2020-02-16 10:00:00 9.3 4 Sudeste 10 Sudeste 0 -- -- 58
2020-02-16 09:00:00 8.7 3 Este 13 Oeste 0 -- -- 48
2020-02-16 08:00:00 9.6 7 Sudoeste 22 Oeste 0 -- -- 37
2020-02-16 07:00:00 4.6 4 Este 9 Este 0 -- -- 58
2020-02-16 06:00:00 4.5 3 Este 9 Sudeste 0 -- -- 59
2020-02-16 05:00:00 4.9 3 Este 5 Este 0 -- -- 60
2020-02-16 04:00:00 4.6 0 Calma 6 Oeste 0 -- -- 65
2020-02-16 03:00:00 4.3 2 Noroeste 9 Este 0 -- -- 77
2020-02-16 02:00:00 4.5 0 Calma 5 Noroeste 0 -- -- 78
2020-02-16 01:00:00 4.7 3 Este 6 Sudoeste 0 -- -- 81
2020-02-16 00:00:00 5.3 3 Oeste 10 Noroeste 0 -- -- 81
2020-02-15 23:00:00 5.8 4 Noroeste 8 Noroeste 0 -- -- 82
2020-02-15 22:00:00 6.2 2 Noroeste 8 Noroeste 0 -- -- 82
2020-02-15 21:00:00 7.1 2 Norte 11 Noroeste 0 -- -- 78
2020-02-15 20:00:00 7.9 6 Noroeste 11 Noroeste 0 -- -- 80
2020-02-15 19:00:00 9.4 4 Noroeste 10 Noroeste 0 -- -- 78
2020-02-15 18:00:00 11.7 0 Calma 12 Sudeste 0 -- -- 72
2020-02-15 17:00:00 14.1 7 Sudeste 21 Este 0 -- -- 64
2020-02-15 16:00:00 15.2 10 Este 22 Este 0 -- -- 62
2020-02-15 15:00:00 15.8 11 Sudeste 22 Este 0 -- -- 58
2020-02-15 14:00:00 15.6 10 Sudeste 19 Este 0 -- -- 59
2020-02-15 13:00:00 15.5 8 Este 19 Este 0 -- -- 56
2020-02-15 12:00:00 14.3 6 Este 13 Este 0 -- -- 52
2020-02-15 11:00:00 12.1 6 Este 10 Este 0 -- -- 48
2020-02-15 10:00:00 8.6 0 Calma 5 Sudeste 0 -- -- 58
2020-02-15 09:00:00 5.2 2 Sur 10 Noroeste 0 -- -- 66
2020-02-15 08:00:00 2.4 2 Oeste 12 Noroeste 0 -- -- 70
2020-02-15 07:00:00 2.6 5 Noroeste 13 Noroeste 0 -- -- 67
2020-02-15 06:00:00 2.8 7 Noroeste 14 Noroeste 0 -- -- 63
2020-02-15 05:00:00 2.4 6 Noroeste 15 Noroeste 0 -- -- 64
2020-02-15 04:00:00 3.2 6 Noroeste 10 Noroeste 0 -- -- 61
2020-02-15 03:00:00 2.6 3 Noroeste 8 Norte 0 -- -- 67
2020-02-15 02:00:00 3 2 Este 7 Noroeste 0 -- -- 72
2020-02-15 01:00:00 3.1 3 Noroeste 7 Noroeste 0 -- -- 73
2020-02-15 00:00:00 3.6 0 Calma 12 Noroeste 0 -- -- 81
2020-02-14 23:00:00 3.7 0 Calma 6 Este 0 -- -- 86
2020-02-14 22:00:00 4.8 4 Norte 8 Noroeste 0 -- -- 81
2020-02-14 21:00:00 5.5 2 Norte 12 Noroeste 0 -- -- 84
2020-02-14 20:00:00 6.8 7 Noroeste 14 Oeste 0 -- -- 79
2020-02-14 19:00:00 8 4 Noroeste 10 Noroeste 0 -- -- 78
2020-02-14 18:00:00 10.3 0 Calma 10 Sudeste 0 -- -- 74
2020-02-14 17:00:00 12.6 7 Sudeste 22 Este 0 -- -- 67
2020-02-14 16:00:00 13.5 9 Sudeste 22 Este 0 -- -- 64
2020-02-14 15:00:00 13.5 8 Sudeste 24 Este 0 -- -- 63
2020-02-14 14:00:00 13.2 14 Este 30 Este 0 -- -- 65
2020-02-14 13:00:00 13.2 11 Este 22 Este 0 -- -- 61
2020-02-14 12:00:00 11.8 6 Sudeste 17 Este 0 -- -- 62
2020-02-14 11:00:00 10.1 7 Sudeste 10 Sudeste 0 -- -- 68
2020-02-14 10:00:00 7 2 Oeste 6 Este 0 -- -- 72
2020-02-14 09:00:00 3.7 4 Este 8 Noroeste 0 -- -- 77
2020-02-14 08:00:00 3.2 0 Calma 8 Noroeste 0 -- -- 78
2020-02-14 07:00:00 3.7 3 Noroeste 17 Norte 0 -- -- 78
2020-02-14 06:00:00 5.4 13 Noroeste 18 Noroeste 0 -- -- 70
2020-02-14 05:00:00 3.9 4 Norte 16 Este 0 -- -- 80
2020-02-14 04:00:00 5.5 5 Norte 13 Noroeste 0 -- -- 69
2020-02-14 03:00:00 3.2 5 Noroeste 8 Noroeste 0 -- -- 86
2020-02-14 02:00:00 3.9 3 Nordeste 10 Noroeste 0 -- -- 85
2020-02-14 01:00:00 4.4 5 Este 13 Este 0 -- -- 86
2020-02-14 00:00:00 4.9 10 Noroeste 14 Noroeste 0 -- -- 86
2020-02-13 23:00:00 4.6 4 Noroeste 13 Noroeste 0 -- -- 86
2020-02-13 22:00:00 6 12 Noroeste 20 Noroeste 0 -- -- 82
2020-02-13 21:00:00 7 7 Noroeste 11 Noroeste 0 -- -- 79
2020-02-13 20:00:00 8.2 2 Sudoeste 5 Noroeste 0 -- -- 84
2020-02-13 19:00:00 9 3 Oeste 14 Sudeste 0 -- -- 84
2020-02-13 18:00:00 10.8 4 Este 19 Este 0 -- -- 78
2020-02-13 17:00:00 12 12 Este 26 Este 0 -- -- 73
2020-02-13 16:00:00 13.9 12 Este 25 Este 0 -- -- 66
2020-02-13 15:00:00 13.8 12 Este 24 Este 0 -- -- 64
2020-02-13 14:00:00 13.6 11 Este 24 Este 0 -- -- 59
2020-02-13 13:00:00 14.8 14 Este 26 Este 0 -- -- 49
2020-02-13 12:00:00 14.6 8 Este 14 Este 0 -- -- 50
2020-02-13 11:00:00 11.8 5 Sudeste 9 Este 0 -- -- 60
2020-02-13 10:00:00 9 4 Sudeste 6 Sudeste 0 -- -- 74
2020-02-13 09:00:00 6 4 Este 11 Noroeste 0 -- -- 80
2020-02-13 08:00:00 4 4 Noroeste 10 Noroeste 0 -- -- 87
2020-02-13 07:00:00 3.3 3 Noroeste 10 Este 0 -- -- 92
2020-02-13 06:00:00 2.6 4 Oeste 9 Oeste 0 -- -- 95
2020-02-13 05:00:00 2.4 3 Norte 9 Este 0 -- -- 95
2020-02-13 04:00:00 2.9 2 Oeste 6 Oeste 0 -- -- 95
2020-02-13 03:00:00 3.4 2 Nordeste 6 Este 0 -- -- 93
2020-02-13 02:00:00 4.4 3 Noroeste 5 Oeste 0 -- -- 93
2020-02-13 01:00:00 5.3 0 Calma 4 Oeste 0 -- -- 92
2020-02-13 00:00:00 5.3 0 Calma 5 Sudeste 0 -- -- 92
2020-02-12 23:00:00 5.6 2 Este 5 Sudeste 0 -- -- 92
2020-02-12 22:00:00 6 0 Calma 7 Oeste 0 -- -- 91
2020-02-12 21:00:00 6.3 0 Calma 6 Este 0 -- -- 94
2020-02-12 20:00:00 6.5 3 Este 10 Oeste 0 -- -- 93
2020-02-12 19:00:00 6.8 5 Este 12 Este 0 -- -- 90
2020-02-12 18:00:00 7.1 4 Sudeste 12 Este 0 -- -- 88
2020-02-12 17:00:00 7.8 8 Sudeste 20 Este 0 -- -- 83
2020-02-12 16:00:00 9 13 Este 26 Este 0 -- -- 77
2020-02-12 15:00:00 10.1 14 Este 24 Este 0 -- -- 72
2020-02-12 14:00:00 10.7 12 Este 27 Este 0 -- -- 68
2020-02-12 13:00:00 11.4 14 Este 24 Este 0 -- -- 67
2020-02-12 12:00:00 10.9 9 Este 23 Sudeste 0 -- -- 70
2020-02-12 11:00:00 8.4 6 Sudeste 13 Este 0 -- -- 82
2020-02-12 10:00:00 5.5 0 Calma 5 Este 0 -- -- 85
2020-02-12 09:00:00 4.7 0 Calma 6 Noroeste 0 -- -- 85
2020-02-12 08:00:00 4.2 6 Noroeste 13 Noroeste 0 -- -- 86
2020-02-12 07:00:00 3.5 5 Noroeste 13 Noroeste 0 -- -- 87
2020-02-12 06:00:00 4.3 6 Noroeste 14 Noroeste 0 -- -- 86
2020-02-12 05:00:00 4.1 3 Noroeste 10 Oeste 0 -- -- 88
2020-02-12 04:00:00 4.1 2 Noroeste 7 Noroeste 0 -- -- 88
2020-02-12 03:00:00 5.1 0 Calma 8 Norte 0 -- -- 87
2020-02-12 02:00:00 5.5 3 Noroeste 9 Noroeste 0 -- -- 86
2020-02-12 01:00:00 5.7 0 Calma 4 Noroeste 0 -- -- 88
2020-02-12 00:00:00 5.9 2 Norte 8 Noroeste 0 -- -- 88
2020-02-11 23:00:00 6.2 3 Noroeste 7 Nordeste 0 -- -- 90
2020-02-11 22:00:00 7.4 0 Calma 5 Noroeste 0 -- -- 88
2020-02-11 21:00:00 7.4 3 Noroeste 5 Sudoeste 0 -- -- 88
2020-02-11 20:00:00 7.6 0 Calma 10 Este 0 -- -- 87
2020-02-11 19:00:00 7.8 3 Sudeste 11 Este 0 -- -- 86
2020-02-11 18:00:00 8.3 4 Sudeste 8 Este 0 -- -- 84
2020-02-11 17:00:00 8.6 4 Este 14 Este 0 -- -- 82
2020-02-11 16:00:00 9.1 8 Este 23 Este 0 -- -- 80
2020-02-11 15:00:00 10.9 11 Este 19 Este 0 -- -- 73
2020-02-11 14:00:00 10.8 10 Este 23 Este 0 -- -- 74
2020-02-11 13:00:00 10.8 12 Este 28 Este 0 -- -- 75
2020-02-11 12:00:00 10.4 10 Este 23 Este 0 -- -- 75
2020-02-11 11:00:00 10.3 4 Sudeste 7 Este 0 -- -- 63
2020-02-11 10:00:00 7.9 4 Sudeste 8 Este 0 -- -- 71
2020-02-11 09:00:00 5.5 2 Sudeste 5 Noroeste 0 -- -- 75
2020-02-11 08:00:00 5.8 0 Calma 8 Este 0 -- -- 72
2020-02-11 07:00:00 6.4 4 Noroeste 8 Oeste 0 -- -- 68
2020-02-11 06:00:00 5.1 2 Noroeste 6 Este 0 -- -- 78
2020-02-11 05:00:00 4.7 2 Este 5 Este 0 -- -- 81
2020-02-11 04:00:00 4.7 2 Oeste 8 Noroeste 0 -- -- 80
2020-02-11 03:00:00 4.8 2 Oeste 6 Noroeste 0 -- -- 78
2020-02-11 02:00:00 5.4 0 Calma 8 Este 0 -- -- 79
2020-02-11 01:00:00 6.5 2 Oeste 6 Noroeste 0 -- -- 69
2020-02-11 00:00:00 6.2 0 Calma 4 Nordeste 0 -- -- 81
2020-02-10 23:00:00 6.9 0 Calma 6 Noroeste 0 -- -- 80
2020-02-10 22:00:00 6.3 0 Calma 8 Noroeste 0 -- -- 82
2020-02-10 21:00:00 7.1 0 Calma 13 Oeste 0 -- -- 80
2020-02-10 20:00:00 7.9 8 Noroeste 14 Noroeste 0 -- -- 78
2020-02-10 19:00:00 9.7 6 Noroeste 10 Noroeste 0 -- -- 72
2020-02-10 18:00:00 11.9 2 Sudeste 14 Sudeste 0 -- -- 67
2020-02-10 17:00:00 15 8 Sudeste 23 Este 0 -- -- 57
2020-02-10 16:00:00 17 10 Este 24 Este 0 -- -- 51
2020-02-10 15:00:00 17.5 10 Este 23 Este 0 -- -- 49
2020-02-10 14:00:00 17.8 10 Este 27 Este 0 -- -- 47
2020-02-10 13:00:00 17.2 14 Este 24 Este 0 -- -- 48
2020-02-10 12:00:00 16.3 14 Este 25 Este 0 -- -- 46
2020-02-10 11:00:00 14.5 4 Sudeste 6 Sudeste 0 -- -- 50
2020-02-10 10:00:00 10.4 0 Calma 8 Noroeste 0 -- -- 66
2020-02-10 09:00:00 7.8 4 Noroeste 10 Noroeste 0 -- -- 73
2020-02-10 08:00:00 5.2 3 Norte 8 Este 0 -- -- 79
2020-02-10 07:00:00 4.5 0 Calma 6 Oeste 0 -- -- 81
2020-02-10 06:00:00 4.3 0 Calma 8 Noroeste 0 -- -- 82
2020-02-10 05:00:00 4.4 0 Calma 7 Noroeste 0 -- -- 83
2020-02-10 04:00:00 4.1 4 Este 6 Nordeste 0 -- -- 87
2020-02-10 03:00:00 3.8 0 Calma 10 Este 0 -- -- 90
2020-02-10 02:00:00 4.1 2 Sudeste 13 Este 0 -- -- 87
2020-02-10 01:00:00 4.6 8 Este 12 Sudeste 0 -- -- 84
2020-02-10 00:00:00 4.5 3 Este 14 Este 0 -- -- 88
2020-02-09 23:00:00 4.7 2 Sudeste 9 Este 0 -- -- 89
2020-02-09 22:00:00 5.1 0 Calma 10 Este 0 -- -- 86
2020-02-09 21:00:00 5.9 4 Este 13 Este 0 -- -- 85
2020-02-09 20:00:00 6.7 3 Este 8 Este 0 -- -- 80
2020-02-09 19:00:00 8 0 Calma 8 Sudeste 0 -- -- 76
2020-02-09 18:00:00 9.4 3 Sudeste 14 Este 0 -- -- 70
2020-02-09 17:00:00 11.9 8 Este 18 Sudeste 0 -- -- 60
2020-02-09 16:00:00 12.8 9 Este 24 Este 0 -- -- 58
2020-02-09 15:00:00 13 15 Este 27 Este 0 -- -- 55
2020-02-09 14:00:00 13.1 9 Este 18 Este 0 -- -- 53
2020-02-09 13:00:00 12.4 8 Este 15 Sudeste 0 -- -- 54
2020-02-09 12:00:00 10.6 6 Sudeste 14 Sudeste 0 -- -- 55
2020-02-09 11:00:00 8 4 Sudeste 9 Este 0 -- -- 60
2020-02-09 10:00:00 5.4 3 Sudeste 4 Sudeste 0 -- -- 70
2020-02-09 09:00:00 2.1 4 Noroeste 12 Noroeste 0 -- -- 80
2020-02-09 08:00:00 -0.1 2 Sur 11 Noroeste 0 -- -- 85
2020-02-09 07:00:00 -0.3 2 Sur 11 Noroeste 0 -- -- 84
2020-02-09 06:00:00 -0.5 2 Oeste 6 Noroeste 0 -- -- 86
2020-02-09 05:00:00 -0.5 0 Calma 7 Noroeste 0 -- -- 86
2020-02-09 04:00:00 -0.6 4 Noroeste 8 Noroeste 0 -- -- 89
2020-02-09 03:00:00 -0.3 3 Noroeste 12 Noroeste 0 -- -- 88
2020-02-09 02:00:00 0.1 0 Calma 10 Noroeste 0 -- -- 89
2020-02-09 01:00:00 1.1 8 Noroeste 15 Noroeste 0 -- -- 87
2020-02-09 00:00:00 1.3 6 Noroeste 13 Oeste 0 -- -- 87
2020-02-08 23:00:00 1.6 5 Noroeste 11 Noroeste 0 -- -- 85
2020-02-08 22:00:00 2.5 0 Calma 9 Noroeste 0 -- -- 83
2020-02-08 21:00:00 3.4 8 Noroeste 13 Noroeste 0 -- -- 81
2020-02-08 20:00:00 2.9 0 Calma 6 Norte 0 -- -- 82
2020-02-08 19:00:00 3.4 0 Calma 6 Noroeste 0 -- -- 79
2020-02-08 18:00:00 5.1 0 Calma 10 Este 0 -- -- 76
2020-02-08 17:00:00 6.5 5 Este 15 Sudeste 0 -- -- 70
2020-02-08 16:00:00 7.7 8 Sudeste 22 Este 0 -- -- 66
2020-02-08 15:00:00 8.1 9 Este 20 Este 0 -- -- 66
2020-02-08 14:00:00 7.5 12 Este 23 Este 0 -- -- 68
2020-02-08 13:00:00 6.4 9 Sudeste 18 Este 0 -- -- 71
2020-02-08 12:00:00 5.6 7 Sudeste 14 Sudeste 0 -- -- 73
2020-02-08 11:00:00 2.8 3 Sudeste 8 Sudoeste 0 -- -- 83
2020-02-08 10:00:00 0.3 4 Oeste 7 Noroeste 0 -- -- 91
2020-02-08 09:00:00 -0.8 6 Noroeste 11 Noroeste 0 -- -- 90
2020-02-08 08:00:00 -2.7 4 Noroeste 6 Noroeste 0 -- -- 89
2020-02-08 07:00:00 -2.1 3 Nordeste 5 Este 0 -- -- 84
2020-02-08 06:00:00 -1.4 0 Calma 5 Norte 0 -- -- 84
2020-02-08 05:00:00 -1.3 4 Este 8 Este 0 -- -- 80
2020-02-08 04:00:00 -0.8 0 Calma 8 Noroeste 0 -- -- 78
2020-02-08 03:00:00 -0.5 0 Calma 6 Noroeste 0 -- -- 78
2020-02-08 02:00:00 -0.2 0 Calma 9 Noroeste 0 -- -- 81
2020-02-08 01:00:00 0.2 7 Noroeste 12 Noroeste 0 -- -- 78
2020-02-08 00:00:00 0.4 0 Calma 5 Este 0 -- -- 85
2020-02-07 23:00:00 1.2 3 Noroeste 10 Noroeste 0 -- -- 79
2020-02-07 22:00:00 1.8 2 Norte 9 Noroeste 0 -- -- 83
2020-02-07 21:00:00 2.8 3 Norte 10 Noroeste 0 -- -- 82
2020-02-07 20:00:00 4.2 0 Calma 3 Sur 0 -- -- 82
2020-02-07 19:00:00 5.4 0 Calma 6 Sudeste 0 -- -- 81
2020-02-07 18:00:00 6.6 2 Este 11 Este 0 -- -- 76
2020-02-07 17:00:00 7.8 6 Sudeste 16 Este 0 -- -- 71
2020-02-07 16:00:00 9.4 6 Sudeste 18 Este 0 -- -- 64
2020-02-07 15:00:00 10.2 5 Este 14 Este 0 -- -- 54
2020-02-07 14:00:00 9.5 6 Sudeste 14 Sudeste 0 -- -- 54
2020-02-07 13:00:00 8.7 6 Sudeste 11 Este 0 -- -- 47
2020-02-07 12:00:00 7 4 Sudeste 8 Sudeste 0 -- -- 50
2020-02-07 11:00:00 4.9 3 Sur 6 Este 0 -- -- 48
2020-02-07 10:00:00 0.9 0 Calma 5 Sudoeste 0 -- -- 58
2020-02-07 09:00:00 -0.8 0 Calma 5 Este 0 -- -- 60
2020-02-07 08:00:00 -2.3 3 Este 6 Noroeste 0 -- -- 63
2020-02-07 07:00:00 -2.3 0 Calma 8 Este 0 -- -- 64
2020-02-07 06:00:00 -1 3 Sudeste 9 Noroeste 0 -- -- 59
2020-02-07 05:00:00 -1.9 0 Calma 5 Oeste 0 -- -- 67
2020-02-07 04:00:00 -1.5 2 Oeste 6 Noroeste 0 -- -- 69
2020-02-07 03:00:00 -1.6 2 Nordeste 4 Noroeste 0 -- -- 71
2020-02-07 02:00:00 -1 2 Este 5 Noroeste 0 -- -- 68
2020-02-07 01:00:00 -0.3 3 Este 5 Noroeste 0 -- -- 66
2020-02-07 00:00:00 0 3 Nordeste 9 Noroeste 0 -- -- 68
2020-02-06 23:00:00 0.4 0 Calma 9 Noroeste 0 -- -- 69
2020-02-06 22:00:00 1.3 3 Noroeste 16 Noroeste 0 -- -- 67
2020-02-06 21:00:00 2.2 9 Noroeste 14 Noroeste 0 -- -- 67
2020-02-06 20:00:00 3.3 3 Noroeste 10 Oeste 0 -- -- 65
2020-02-06 19:00:00 4.8 4 Noroeste 10 Noroeste 0 -- -- 61
2020-02-06 18:00:00 7.3 2 Sudeste 18 Sudeste 0 -- -- 54
2020-02-06 17:00:00 10.9 9 Este 27 Este 0 -- -- 44
2020-02-06 16:00:00 12.2 17 Este 30 Este 0 -- -- 42
2020-02-06 15:00:00 13.2 12 Este 23 Este 0 -- -- 40
2020-02-06 14:00:00 12.6 7 Este 17 Este 0 -- -- 41
2020-02-06 13:00:00 11.1 9 Este 16 Sur 0 -- -- 40
2020-02-06 12:00:00 9.3 6 Sudeste 13 Sudeste 0 -- -- 39
2020-02-06 11:00:00 6.7 4 Sudeste 8 Sudeste 0 -- -- 36
2020-02-06 10:00:00 3.4 0 Calma 5 Oeste 0 -- -- 35
2020-02-06 09:00:00 -0.9 0 Calma 7 Noroeste 0 -- -- 43
2020-02-06 08:00:00 -1 3 Noroeste 14 Oeste 0 -- -- 41
2020-02-06 07:00:00 -1 4 Noroeste 10 Noroeste 0 -- -- 40
2020-02-06 06:00:00 -1.1 4 Oeste 9 Noroeste 0 -- -- 42
2020-02-06 05:00:00 -0.5 2 Sudoeste 17 Noroeste 0 -- -- 41
2020-02-06 04:00:00 0.1 6 Noroeste 13 Noroeste 0 -- -- 37
2020-02-06 03:00:00 0.7 6 Noroeste 17 Noroeste 0 -- -- 38
2020-02-06 02:00:00 0.4 3 Sudeste 15 Noroeste 0 -- -- 38
2020-02-06 01:00:00 0.4 7 Noroeste 12 Noroeste 0 -- -- 37
2020-02-06 00:00:00 0.5 7 Noroeste 14 Noroeste 0 -- -- 38
2020-02-05 23:00:00 0.8 6 Oeste 11 Noroeste 0 -- -- 48
2020-02-05 22:00:00 1.8 5 Noroeste 13 Norte 0 -- -- 43
2020-02-05 21:00:00 2.3 3 Oeste 10 Noroeste 0 -- -- 46
2020-02-05 20:00:00 3.9 4 Norte 14 Noroeste 0 -- -- 45
2020-02-05 19:00:00 4.9 2 Este 6 Noroeste 0 -- -- 43
2020-02-05 18:00:00 7.4 0 Calma 8 Sudeste 0 -- -- 36
2020-02-05 17:00:00 11 5 Sudeste 15 Sudeste 0 -- -- 28
2020-02-05 16:00:00 13 6 Sudeste 25 Este 0 -- -- 25
2020-02-05 15:00:00 14 10 Este 27 Este 0 -- -- 30
2020-02-05 14:00:00 13.6 17 Este 27 Este 0 -- -- 25
2020-02-05 13:00:00 13.9 9 Sudeste 36 Este 0 -- -- 16
2020-02-05 12:00:00 11.9 5 Sudeste 13 Este 0 -- -- 23
2020-02-05 11:00:00 7.9 4 Sudeste 17 Este 0 -- -- 30
2020-02-05 10:00:00 7.1 3 Sudeste 19 Noroeste 0 -- -- 28
2020-02-05 09:00:00 3.6 3 Norte 21 Noroeste 0 -- -- 33
2020-02-05 08:00:00 3.2 14 Noroeste 27 Noroeste 0 -- -- 30
2020-02-05 07:00:00 3.7 10 Noroeste 28 Noroeste 0 -- -- 32
2020-02-05 06:00:00 3.3 11 Noroeste 28 Noroeste 0 -- -- 36
2020-02-05 05:00:00 3.1 10 Noroeste 35 Noroeste 0 -- -- 41
2020-02-05 04:00:00 3.3 10 Noroeste 35 Noroeste 0 -- -- 43
2020-02-05 03:00:00 3.8 10 Noroeste 24 Oeste 0 -- -- 41
2020-02-05 02:00:00 3.1 5 Norte 24 Noroeste 0 -- -- 38
2020-02-05 01:00:00 4 10 Este 40 Oeste 0 -- -- 41
2020-02-05 00:00:00 5.1 25 Oeste 44 Oeste 0 -- -- 41
2020-02-04 23:00:00 5.5 14 Sudoeste 40 Sudoeste 0 -- -- 41
2020-02-04 22:00:00 5.8 17 Sudoeste 37 Oeste 0 -- -- 39
2020-02-04 21:00:00 5.6 8 Oeste 43 Noroeste 0 -- -- 37
2020-02-04 20:00:00 6.6 13 Noroeste 48 Noroeste 0 -- -- 37
2020-02-04 19:00:00 7.9 30 Noroeste 58 Noroeste 0 -- -- 38
2020-02-04 18:00:00 10 27 Noroeste 68 Noroeste 0 -- -- 24
2020-02-04 12:00:00 15.7 32 Noroeste 65 Noroeste 0 -- -- 37
2020-02-04 11:00:00 15.9 27 Noroeste 58 Noroeste 0 -- -- 38
2020-02-04 10:00:00 15.1 21 Oeste 49 Oeste 0 -- -- 41
2020-02-04 09:00:00 13.9 13 Noroeste 65 Noroeste 0 -- -- 40
2020-02-04 08:00:00 12.8 16 Noroeste 44 Noroeste 0 -- -- 40
2020-02-04 07:00:00 10.9 11 Oeste 22 Sudoeste 0 -- -- 45
2020-02-04 06:00:00 8.4 5 Noroeste 10 Noroeste 0 -- -- 53
2020-02-04 05:00:00 8.3 0 Calma 14 Noroeste 0 -- -- 55
2020-02-04 04:00:00 8.1 2 Oeste 7 Noroeste 0 -- -- 55
2020-02-04 03:00:00 9.2 5 Noroeste 12 Noroeste 0 -- -- 52
2020-02-04 02:00:00 10.7 5 Norte 12 Noroeste 0 -- -- 50
2020-02-04 01:00:00 9.7 2 Norte 11 Este 0 -- -- 54
2020-02-04 00:00:00 10.1 5 Norte 18 Sur 0 -- -- 54
2020-02-03 23:00:00 10.4 4 Este 13 Norte 0 -- -- 55
2020-02-03 22:00:00 9.6 2 Sudoeste 10 Este 0 -- -- 57
2020-02-03 21:00:00 8.8 3 Este 8 Este 0 -- -- 61
2020-02-03 20:00:00 10 2 Nordeste 18 Oeste 0 -- -- 58
2020-02-03 19:00:00 11.7 11 Noroeste 18 Noroeste 0 -- -- 56
2020-02-03 18:00:00 14.1 6 Noroeste 12 Noroeste 0 -- -- 52
2020-02-03 17:00:00 17.5 3 Sudeste 17 Sudeste 0 -- -- 44
2020-02-03 16:00:00 18.9 8 Sudeste 17 Sudeste 0 -- -- 41
2020-02-03 15:00:00 20.2 8 Sudeste 20 Sudeste 0 -- -- 35
2020-02-03 14:00:00 21.2 5 Sudeste 21 Oeste 0 -- -- 33
2020-02-03 13:00:00 20.7 7 Sudoeste 21 Oeste 0 -- -- 28
2020-02-03 12:00:00 19.2 5 Sur 12 Sudoeste 0 -- -- 31
2020-02-03 11:00:00 16.4 5 Este 14 Oeste 0 -- -- 40
2020-02-03 10:00:00 14.4 9 Noroeste 21 Noroeste 0 -- -- 37
2020-02-03 09:00:00 12 9 Oeste 23 Noroeste 0 -- -- 43
2020-02-03 08:00:00 9.8 2 Este 21 Noroeste 0 -- -- 47
2020-02-03 07:00:00 10.2 4 Nordeste 22 Noroeste 0 -- -- 48
2020-02-03 06:00:00 11.4 9 Oeste 18 Noroeste 0 -- -- 44
2020-02-03 05:00:00 10.7 6 Noroeste 13 Noroeste 0 -- -- 49
2020-02-03 04:00:00 9.8 3 Oeste 15 Este 0 -- -- 63
2020-02-03 03:00:00 10.1 3 Este 23 Noroeste 0 -- -- 64
2020-02-03 02:00:00 9.5 5 Noroeste 10 Noroeste 0 -- -- 67
2020-02-03 01:00:00 9.2 0 Calma 5 Este 0 -- -- 69
2020-02-03 00:00:00 8.1 2 Este 9 Este 0 -- -- 73
2020-02-02 23:00:00 8.7 4 Noroeste 13 Oeste 0 -- -- 70
2020-02-02 22:00:00 8.6 6 Noroeste 16 Noroeste 0 -- -- 70
2020-02-02 21:00:00 9.4 10 Noroeste 17 Noroeste 0 -- -- 66
2020-02-02 20:00:00 9.9 13 Noroeste 17 Noroeste 0 -- -- 64
2020-02-02 19:00:00 11 10 Noroeste 18 Noroeste 0 -- -- 61
2020-02-02 18:00:00 13.1 8 Noroeste 14 Noroeste 0 -- -- 55
2020-02-02 17:00:00 16.9 3 Sudeste 16 Este 0 -- -- 46
2020-02-02 16:00:00 18.7 7 Sudeste 22 Este 0 -- -- 38
2020-02-02 15:00:00 19 9 Sudeste 20 Este 0 -- -- 38
2020-02-02 14:00:00 18.9 9 Este 23 Este 0 -- -- 38
2020-02-02 13:00:00 18.1 4 Sudeste 10 Sudeste 0 -- -- 36
2020-02-02 12:00:00 15.7 3 Este 13 Oeste 0 -- -- 43
2020-02-02 11:00:00 10.1 3 Sudeste 8 Oeste 0 -- -- 62
2020-02-02 10:00:00 8.4 2 Nordeste 6 Este 0 -- -- 64
2020-02-02 09:00:00 7.3 3 Sudeste 6 Norte 0 -- -- 63
2020-02-02 08:00:00 6.1 5 Este 9 Este 0 -- -- 64
2020-02-02 07:00:00 6.1 0 Calma 7 Noroeste 0 -- -- 64
2020-02-02 06:00:00 7.2 6 Noroeste 14 Noroeste 0 -- -- 62
2020-02-02 05:00:00 6.8 4 Noroeste 9 Noroeste 0 -- -- 66
2020-02-02 04:00:00 6.4 3 Norte 10 Noroeste 0 -- -- 69
2020-02-02 03:00:00 5.3 4 Noroeste 9 Noroeste 0 -- -- 72
2020-02-02 02:00:00 4.9 2 Noroeste 5 Noroeste 0 -- -- 72
2020-02-02 01:00:00 5.1 0 Calma 6 Oeste 0 -- -- 70
2020-02-02 00:00:00 5.1 0 Calma 4 Este 0 -- -- 71
2020-02-01 23:00:00 5.3 2 Sur 6 Oeste 0 -- -- 70
2020-02-01 22:00:00 5.8 2 Este 8 Oeste 0 -- -- 72
2020-02-01 21:00:00 6.1 4 Oeste 8 Noroeste 0 -- -- 69
2020-02-01 20:00:00 7.6 7 Noroeste 15 Noroeste 0 -- -- 64
2020-02-01 19:00:00 9.5 4 Noroeste 8 Norte 0 -- -- 59
2020-02-01 18:00:00 12.3 4 Norte 30 Sudoeste 0 -- -- 49
2020-02-01 17:00:00 14.7 12 Sudoeste 25 Noroeste 0 -- -- 42
2020-02-01 16:00:00 15.9 14 Noroeste 30 Oeste 0 -- -- 45
2020-02-01 15:00:00 16.5 16 Noroeste 34 Oeste 0 -- -- 42
2020-02-01 14:00:00 16.2 18 Sudoeste 35 Noroeste 0 -- -- 46
2020-02-01 13:00:00 15.1 6 Este 18 Este 0 -- -- 47
2020-02-01 12:00:00 15.3 7 Sudeste 17 Este 0 -- -- 45
2020-02-01 11:00:00 13 7 Sudeste 13 Sudeste 0 -- -- 58
2020-02-01 10:00:00 8.2 2 Oeste 10 Oeste 0 -- -- 74
2020-02-01 09:00:00 8.5 3 Noroeste 14 Noroeste 0 -- -- 68
2020-02-01 08:00:00 5.5 4 Nordeste 15 Noroeste 0 -- -- 78
2020-02-01 07:00:00 3.6 2 Noroeste 7 Noroeste 0 -- -- 83
2020-02-01 06:00:00 3.3 0 Calma 6 Este 0 -- -- 86
2020-02-01 05:00:00 3.5 3 Oeste 6 Este 0 -- -- 86
2020-02-01 04:00:00 3.9 4 Este 10 Sudeste 0 -- -- 89
2020-02-01 03:00:00 3.7 4 Este 8 Sudeste 0 -- -- 91
2020-02-01 02:00:00 3.7 2 Noroeste 8 Este 0 -- -- 92
2020-02-01 01:00:00 4 3 Noroeste 8 Noroeste 0 -- -- 91
2020-02-01 00:00:00 4.1 3 Noroeste 11 Noroeste 0 -- -- 91
2020-01-31 23:00:00 4.4 2 Norte 11 Noroeste 0 -- -- 88
2020-01-31 22:00:00 5.4 6 Noroeste 17 Noroeste 0 -- -- 84
2020-01-31 21:00:00 5.9 7 Noroeste 12 Noroeste 0 -- -- 84
2020-01-31 20:00:00 6.5 7 Noroeste 13 Noroeste 0 -- -- 81
2020-01-31 19:00:00 8.3 6 Noroeste 10 Noroeste 0 -- -- 74
2020-01-31 18:00:00 10.8 3 Norte 16 Oeste 0 -- -- 69
2020-01-31 17:00:00 12.3 6 Oeste 20 Oeste 0 -- -- 62
2020-01-31 16:00:00 13.5 5 Noroeste 20 Oeste 0 -- -- 59
2020-01-31 15:00:00 14.3 9 Sudoeste 17 Oeste 0 -- -- 54
2020-01-31 14:00:00 12.7 3 Sudeste 11 Sudeste 0 -- -- 59
2020-01-31 13:00:00 12.5 8 Sudeste 16 Sudeste 0 -- -- 60
2020-01-31 12:00:00 12.6 4 Este 9 Este 0 -- -- 61
2020-01-31 11:00:00 11.2 4 Sudeste 6 Sudeste 0 -- -- 65
2020-01-31 10:00:00 8.6 4 Sudeste 9 Noroeste 0 -- -- 74
2020-01-31 09:00:00 4.8 2 Noroeste 6 Noroeste 0 -- -- 85
2020-01-31 08:00:00 4.6 0 Calma 4 Sudeste 0 -- -- 85
2020-01-31 07:00:00 4.9 0 Calma 7 Oeste 0 -- -- 84
2020-01-31 06:00:00 4.6 5 Noroeste 10 Noroeste 0 -- -- 83
2020-01-31 05:00:00 4.4 2 Oeste 8 Noroeste 0 -- -- 84
2020-01-31 04:00:00 4.4 2 Sudeste 5 Norte 0 -- -- 85
2020-01-31 03:00:00 4.7 2 Noroeste 8 Noroeste 0 -- -- 85
2020-01-31 02:00:00 3.9 4 Noroeste 8 Oeste 0 -- -- 88
2020-01-31 01:00:00 3.9 0 Calma 5 Sudoeste 0 -- -- 88
2020-01-31 00:00:00 4.2 5 Noroeste 8 Norte 0 -- -- 89
2020-01-30 23:00:00 4.7 3 Nordeste 10 Noroeste 0 -- -- 85
2020-01-30 22:00:00 5.2 2 Norte 9 Noroeste 0 -- -- 82
2020-01-30 21:00:00 5.6 4 Oeste 10 Noroeste 0 -- -- 82
2020-01-30 20:00:00 6.7 4 Norte 13 Noroeste 0 -- -- 81
2020-01-30 19:00:00 8.2 5 Noroeste 9 Noroeste 0 -- -- 76
2020-01-30 18:00:00 9.7 3 Sudeste 10 Sudeste 0 -- -- 75
2020-01-30 17:00:00 11.5 6 Este 15 Este 0 -- -- 66
2020-01-30 16:00:00 13.2 6 Sudeste 17 Este 0 -- -- 57
2020-01-30 15:00:00 13.7 10 Este 19 Este 0 -- -- 52
2020-01-30 14:00:00 13 8 Este 19 Este 0 -- -- 51
2020-01-30 13:00:00 12.8 10 Este 20 Este 0 -- -- 52
2020-01-30 12:00:00 11.6 3 Sudeste 11 Sudeste 0 -- -- 53
2020-01-30 11:00:00 8.9 4 Sudeste 8 Este 0 -- -- 69
2020-01-30 10:00:00 6.6 2 Noroeste 9 Noroeste 0 -- -- 77
2020-01-30 09:00:00 3.9 4 Noroeste 6 Noroeste 0 -- -- 84
2020-01-30 08:00:00 3.7 2 Oeste 8 Noroeste 0 -- -- 83
2020-01-30 07:00:00 3.2 2 Norte 11 Noroeste 0 -- -- 82
2020-01-30 06:00:00 2.8 3 Noroeste 9 Noroeste 0 -- -- 83
2020-01-30 05:00:00 3.6 5 Noroeste 11 Norte 0 -- -- 76
2020-01-30 04:00:00 3.2 3 Noroeste 9 Norte 0 -- -- 82
2020-01-30 03:00:00 2.6 4 Este 10 Este 0 -- -- 81
2020-01-30 02:00:00 2.3 2 Este 7 Nordeste 0 -- -- 81
2020-01-30 01:00:00 1.7 2 Noroeste 6 Nordeste 0 -- -- 81
2020-01-30 00:00:00 2 2 Este 5 Sur 0 -- -- 79
2020-01-29 23:00:00 2.4 2 Oeste 5 Noroeste 0 -- -- 79
2020-01-29 22:00:00 2.8 2 Noroeste 9 Noroeste 0 -- -- 78
2020-01-29 21:00:00 3.1 5 Noroeste 15 Noroeste 0 -- -- 76
2020-01-29 20:00:00 4.3 9 Noroeste 14 Noroeste 0 -- -- 76
2020-01-29 19:00:00 5.7 3 Noroeste 8 Noroeste 0 -- -- 75
2020-01-29 18:00:00 7.5 3 Este 14 Este 0 -- -- 75
2020-01-29 17:00:00 9.6 12 Este 23 Este 0 -- -- 67
2020-01-29 16:00:00 11.1 7 Sudeste 15 Sudeste 0 -- -- 59
2020-01-29 15:00:00 12.4 7 Este 17 Este 0 -- -- 51
2020-01-29 14:00:00 12.6 8 Este 15 Sudeste 0 -- -- 46
2020-01-29 13:00:00 10.9 4 Sudeste 13 Este 0 -- -- 40
2020-01-29 12:00:00 8.8 3 Sudeste 7 Este 0 -- -- 48
2020-01-29 11:00:00 5 0 Calma 6 Sudeste 0 -- -- 59
2020-01-29 10:00:00 3.3 3 Nordeste 17 Noroeste 0 -- -- 64
2020-01-29 09:00:00 0.9 0 Calma 8 Este 0 -- -- 66
2020-01-29 08:00:00 -0.1 2 Norte 6 Norte 0 -- -- 70
2020-01-29 07:00:00 0 2 Este 8 Noroeste 0 -- -- 74
2020-01-29 06:00:00 -0.1 0 Calma 6 Este 0 -- -- 78
2020-01-29 05:00:00 -0.3 2 Este 5 Sudeste 0 -- -- 83
2020-01-29 04:00:00 -0.3 2 Oeste 6 Noroeste 0 -- -- 83
2020-01-29 03:00:00 -0.1 2 Noroeste 14 Noroeste 0 -- -- 85
2020-01-29 02:00:00 0 6 Noroeste 14 Noroeste 0 -- -- 86
2020-01-29 01:00:00 0.4 0 Calma 5 Este 0 -- -- 86
2020-01-29 00:00:00 1 2 Este 5 Este 0 -- -- 85
2020-01-28 23:00:00 1.8 0 Calma 14 Norte 0 -- -- 83
2020-01-28 22:00:00 2.6 12 Noroeste 18 Noroeste 0 -- -- 80
2020-01-28 21:00:00 2.5 4 Oeste 12 Noroeste 0 -- -- 82
2020-01-28 20:00:00 3.3 4 Noroeste 10 Noroeste 0 -- -- 78
2020-01-28 19:00:00 4.5 5 Noroeste 15 Noroeste 0 -- -- 75
2020-01-28 18:00:00 6.1 5 Noroeste 9 Noroeste 0 -- -- 81
2020-01-28 17:00:00 7.7 3 Sudeste 11 Este 0 -- -- 79
2020-01-28 16:00:00 9.6 7 Sudeste 18 Este 0 -- -- 72
2020-01-28 15:00:00 11.3 8 Sudeste 21 Este 0 -- -- 60
2020-01-28 14:00:00 11.2 9 Sudeste 19 Sudeste 0 -- -- 58
2020-01-28 13:00:00 11.1 9 Este 14 Este 0 -- -- 57
2020-01-28 12:00:00 10.1 5 Este 27 Oeste 0 -- -- 58
2020-01-28 11:00:00 7.6 12 Oeste 25 Oeste 0 -- -- 65
2020-01-28 10:00:00 6.5 6 Oeste 40 Oeste 0 -- -- 71
2020-01-28 09:00:00 5.9 14 Oeste 42 Oeste 0 -- -- 73
2020-01-28 08:00:00 5.9 25 Oeste 44 Oeste 0 -- -- 74
2020-01-28 07:00:00 5.7 15 Oeste 46 Oeste 0 -- -- 74
2020-01-28 06:00:00 5.7 26 Oeste 46 Oeste 0 -- -- 73
2020-01-28 05:00:00 5.1 21 Oeste 37 Oeste 0 -- -- 76
2020-01-28 04:00:00 4.2 3 Norte 39 Oeste 0 -- -- 75
2020-01-28 03:00:00 4.8 19 Noroeste 37 Oeste 0 -- -- 75
2020-01-28 02:00:00 3.5 4 Este 10 Norte 0 -- -- 79
2020-01-28 01:00:00 4.1 5 Noroeste 33 Sudoeste 0 -- -- 78
2020-01-28 00:00:00 4.8 14 Oeste 37 Noroeste 0 -- -- 78
2020-01-27 23:00:00 1 5 Este 18 Este 0 -- -- 97
2020-01-27 22:00:00 1.2 6 Este 17 Este 0 -- -- 97
2020-01-27 21:00:00 1.6 8 Este 21 Este 0 -- -- 95
2020-01-27 20:00:00 2.5 2 Noroeste 10 Este 0 -- -- 90
2020-01-27 19:00:00 3.8 4 Este 24 Sudoeste 0 -- -- 85
2020-01-27 18:00:00 7.2 10 Oeste 36 Noroeste 0 -- -- 65
2020-01-27 17:00:00 9.5 19 Noroeste 46 Oeste 0 -- -- 51
2020-01-27 16:00:00 8.8 20 Oeste 47 Sudoeste 0 -- -- 54
2020-01-27 15:00:00 8.8 21 Oeste 49 Oeste 0 -- -- 54
2020-01-27 14:00:00 9 21 Oeste 39 Sudoeste 0 -- -- 53
2020-01-27 13:00:00 6.8 9 Este 17 Este 0 -- -- 69
2020-01-27 12:00:00 6 7 Este 12 Sudeste 0 -- -- 58
2020-01-27 11:00:00 3 0 Calma 5 Sudoeste 0 -- -- 77
2020-01-27 10:00:00 1.3 0 Calma 4 Norte 0 -- -- 84
2020-01-27 09:00:00 0.6 0 Calma 10 Noroeste 0 -- -- 81
2020-01-27 08:00:00 -0.8 2 Oeste 5 Oeste 0 -- -- 87
2020-01-27 07:00:00 -0.5 3 Norte 6 Nordeste 0 -- -- 88
2020-01-27 06:00:00 0.7 5 Este 10 Noroeste 0 -- -- 87
2020-01-27 05:00:00 0 2 Noroeste 6 Este 0 -- -- 93
2020-01-27 04:00:00 -0.8 2 Nordeste 10 Oeste 0 -- -- 95
2020-01-27 03:00:00 -0.1 4 Nordeste 9 Este 0 -- -- 94
2020-01-27 02:00:00 0.6 0 Calma 6 Noroeste 0 -- -- 93
2020-01-27 01:00:00 1.3 0 Calma 5 Noroeste 0 -- -- 93
2020-01-27 00:00:00 2.6 3 Noroeste 17 Noroeste 0 -- -- 89
2020-01-26 23:00:00 3.5 7 Noroeste 10 Noroeste 0 -- -- 92
2020-01-26 22:00:00 3.8 0 Calma 3 Sudoeste 0 -- -- 94
2020-01-26 21:00:00 4 0 Calma 4 Este 0 -- -- 93
2020-01-26 20:00:00 4.4 0 Calma 4 Este 0 -- -- 92
2020-01-26 19:00:00 4.5 2 Sudeste 6 Sur 0 -- -- 91
2020-01-26 18:00:00 4.7 3 Sudeste 10 Sudeste 0 -- -- 89
2020-01-26 17:00:00 5.8 3 Este 18 Sur 0 -- -- 80
2020-01-26 16:00:00 7 9 Este 16 Este 0 -- -- 76
2020-01-26 15:00:00 7.4 7 Este 17 Este 0 -- -- 74
2020-01-26 14:00:00 7.3 8 Este 17 Este 0 -- -- 73
2020-01-26 13:00:00 7.8 3 Sudoeste 6 Este 0 -- -- 68
2020-01-26 12:00:00 7 0 Calma 4 Sudeste 0 -- -- 73
2020-01-26 11:00:00 5.5 2 Sudeste 4 Este 0 -- -- 82
2020-01-26 10:00:00 3.4 2 Sudeste 10 Noroeste 0 -- -- 85
2020-01-26 09:00:00 2 3 Noroeste 10 Noroeste 0 -- -- 88
2020-01-26 08:00:00 1.4 4 Noroeste 6 Noroeste 0 -- -- 90
2020-01-26 07:00:00 1.5 0 Calma 5 Noroeste 0 -- -- 89
2020-01-26 06:00:00 1.3 0 Calma 5 Sudoeste 0 -- -- 90
2020-01-26 05:00:00 1.6 2 Noroeste 11 Noroeste 0 -- -- 87
2020-01-26 04:00:00 1.3 0 Calma 5 Norte 0 -- -- 91
2020-01-26 03:00:00 1.7 2 Oeste 4 Noroeste 0 -- -- 91
2020-01-26 02:00:00 2 2 Sudoeste 5 Oeste 0 -- -- 90
2020-01-26 01:00:00 2.2 3 Noroeste 5 Norte 0 -- -- 90
2020-01-26 00:00:00 1.8 0 Calma 5 Este 0 -- -- 92
2020-01-25 23:00:00 2.8 3 Oeste 14 Noroeste 0 -- -- 87
2020-01-25 22:00:00 2.8 4 Oeste 9 Oeste 0 -- -- 88
2020-01-25 21:00:00 2.7 2 Oeste 10 Noroeste 0 -- -- 90
2020-01-25 20:00:00 2.7 5 Noroeste 8 Noroeste 0 -- -- 91
2020-01-25 19:00:00 3.5 3 Norte 9 Noroeste 0 -- -- 89
2020-01-25 18:00:00 4.5 0 Calma 5 Noroeste 0 -- -- 89
2020-01-25 17:00:00 5.7 0 Calma 5 Sudoeste 0 -- -- 81
2020-01-25 16:00:00 5.1 0 Calma 9 Oeste 0.2 -- -- 86
2020-01-25 15:00:00 4.6 3 Oeste 5 Este 0 -- -- 85
2020-01-25 14:00:00 4.4 4 Sudeste 6 Este 0.2 -- -- 85
2020-01-25 13:00:00 4.3 2 Sudeste 4 Sudeste 0 -- -- 83
2020-01-25 12:00:00 4 4 Este 8 Oeste 0 -- -- 86
2020-01-25 11:00:00 3.1 6 Este 11 Este 0 -- -- 87
2020-01-25 10:00:00 2.9 3 Norte 6 Noroeste 0 -- -- 88
2020-01-25 09:00:00 2.2 3 Noroeste 8 Norte 0 -- -- 90
2020-01-25 08:00:00 1.9 0 Calma 5 Sudeste 0 -- -- 90
2020-01-25 07:00:00 1.5 2 Noroeste 5 Oeste 0 -- -- 88
2020-01-25 06:00:00 1.5 0 Calma 6 Sudoeste 0 -- -- 84
2020-01-25 05:00:00 0.8 2 Sudoeste 5 Sudoeste 0 -- -- 85
2020-01-25 04:00:00 0.3 3 Noroeste 4 Oeste 0 -- -- 84
2020-01-25 03:00:00 -0.1 2 Oeste 6 Sudoeste 0 -- -- 86
2020-01-25 02:00:00 -0.1 3 Norte 9 Norte 0 -- -- 84
2020-01-25 01:00:00 -0.7 0 Calma 4 Nordeste 0 -- -- 86
2020-01-25 00:00:00 -0.4 2 Oeste 5 Noroeste 0 -- -- 85
2020-01-24 23:00:00 -0.2 2 Noroeste 9 Noroeste 0 -- -- 85
2020-01-24 22:00:00 0.5 6 Noroeste 14 Noroeste 0 -- -- 82
2020-01-24 21:00:00 1.3 9 Noroeste 14 Noroeste 0 -- -- 78
2020-01-24 20:00:00 1.6 6 Noroeste 11 Noroeste 0 -- -- 78
2020-01-24 19:00:00 2.8 4 Norte 16 Noroeste 0 -- -- 75
2020-01-24 18:00:00 4.1 6 Noroeste 16 Noroeste 0 -- -- 68
2020-01-24 17:00:00 6.6 10 Noroeste 14 Norte 0 -- -- 59
2020-01-24 16:00:00 9.4 7 Oeste 23 Oeste 0 -- -- 51
2020-01-24 15:00:00 9.1 12 Oeste 25 Oeste 0 -- -- 49
2020-01-24 14:00:00 9.2 11 Oeste 23 Oeste 0 -- -- 47
2020-01-24 13:00:00 8.3 14 Oeste 27 Oeste 0 -- -- 51
2020-01-24 12:00:00 7.4 10 Oeste 19 Oeste 0 -- -- 59
2020-01-24 11:00:00 5.2 3 Sudeste 6 Sudeste 0 -- -- 77
2020-01-24 10:00:00 2.1 2 Oeste 5 Sudoeste 0 -- -- 89
2020-01-24 09:00:00 0.2 0 Calma 6 Noroeste 0 -- -- 90
2020-01-24 08:00:00 -0.4 3 Noroeste 6 Nordeste 0 -- -- 91
2020-01-24 07:00:00 -0.3 0 Calma 7 Noroeste 0 -- -- 91
2020-01-24 06:00:00 -0.6 3 Oeste 6 Noroeste 0 -- -- 94
2020-01-24 05:00:00 -0.8 3 Noroeste 10 Noroeste 0 -- -- 94
2020-01-24 04:00:00 -0.3 6 Noroeste 11 Noroeste 0 -- -- 94
2020-01-24 03:00:00 -0.5 3 Oeste 6 Noroeste 0 -- -- 96
2020-01-24 02:00:00 -0.3 0 Calma 8 Oeste 0 -- -- 96
2020-01-24 01:00:00 -0.4 3 Oeste 11 Noroeste 0 -- -- 95
2020-01-24 00:00:00 -0.2 0 Calma 13 Noroeste 0 -- -- 94
2020-01-23 23:00:00 0.1 6 Noroeste 12 Noroeste 0 -- -- 95
2020-01-23 22:00:00 0.1 0 Calma 10 Noroeste 0 -- -- 95
2020-01-23 21:00:00 0.4 4 Oeste 10 Noroeste 0 -- -- 95
2020-01-23 20:00:00 1.3 0 Calma 14 Noroeste 0 -- -- 93
2020-01-23 19:00:00 2.3 6 Noroeste 14 Noroeste 0 -- -- 92
2020-01-23 18:00:00 4.3 4 Noroeste 9 Noroeste 0 -- -- 91
2020-01-23 17:00:00 5.9 3 Sur 7 Este 0 -- -- 92
2020-01-23 16:00:00 5.8 3 Sudeste 22 Este 0 -- -- 91
2020-01-23 15:00:00 5.5 13 Este 23 Sudeste 0 -- -- 89
2020-01-23 14:00:00 5.1 13 Este 22 Este 0 -- -- 95
2020-01-23 13:00:00 -- -- -- -- -- -- -- -- --
2020-01-23 12:00:00 -- -- -- -- -- -- -- -- --
2020-01-23 11:00:00 -- -- -- -- -- -- -- -- --
2020-01-23 10:00:00 -- -- -- -- -- -- -- -- --
2020-01-23 09:00:00 -- -- -- -- -- -- -- -- --
2020-01-23 08:00:00 -- -- -- -- -- -- -- -- --
2020-01-23 07:00:00 -- -- -- -- -- -- -- -- --
2020-01-23 06:00:00 -- -- -- -- -- -- -- -- --
2020-01-23 05:00:00 -- -- -- -- -- -- -- -- --
2020-01-23 04:00:00 -- -- -- -- -- -- -- -- --
2020-01-23 03:00:00 -- -- -- -- -- -- -- -- --
2020-01-23 02:00:00 -- -- -- -- -- -- -- -- --
2020-01-23 01:00:00 -- -- -- -- -- -- -- -- --
2020-01-23 00:00:00 -- -- -- -- -- -- -- -- --
2020-01-22 23:00:00 -- -- -- -- -- -- -- -- --
2020-01-22 22:00:00 -- -- -- -- -- -- -- -- --
2020-01-22 21:00:00 -- -- -- -- -- -- -- -- --
2020-01-22 20:00:00 -- -- -- -- -- -- -- -- --
2020-01-22 19:00:00 -- -- -- -- -- -- -- -- --
2020-01-22 18:00:00 -- -- -- -- -- -- -- -- --
2020-01-22 17:00:00 -- -- -- -- -- -- -- -- --
2020-01-22 16:00:00 -- -- -- -- -- -- -- -- --
2020-01-22 15:00:00 -- -- -- -- -- -- -- -- --
2020-01-22 14:00:00 -- -- -- -- -- -- -- -- --
2020-01-22 13:00:00 -- -- -- -- -- -- -- -- --
2020-01-22 12:00:00 -- -- -- -- -- -- -- -- --
2020-01-22 11:00:00 -- -- -- -- -- -- -- -- --
2020-01-22 10:00:00 -- -- -- -- -- -- -- -- --
2020-01-22 09:00:00 -- -- -- -- -- -- -- -- --
2020-01-22 08:00:00 -- -- -- -- -- -- -- -- --
2020-01-22 07:00:00 -- -- -- -- -- -- -- -- --
2020-01-22 06:00:00 -- -- -- -- -- -- -- -- --
2020-01-22 05:00:00 -- -- -- -- -- -- -- -- --
2020-01-22 04:00:00 -- -- -- -- -- -- -- -- --
2020-01-22 03:00:00 -- -- -- -- -- -- -- -- --
2020-01-22 02:00:00 -- -- -- -- -- -- -- -- --
2020-01-22 01:00:00 -- -- -- -- -- -- -- -- --
2020-01-22 00:00:00 -- -- -- -- -- -- -- -- --